sensor_id;sensor_type;location;lat;lon;timestamp;temperature;humidity
7970;DHT22;4030;52.362;9.206;2023-06-19T00:01:59;24.80;49.50
7970;DHT22;4030;52.362;9.206;2023-06-19T00:04:25;24.70;49.50
7970;DHT22;4030;52.362;9.206;2023-06-19T00:06:52;24.70;49.60
7970;DHT22;4030;52.362;9.206;2023-06-19T00:09:18;24.70;49.70
7970;DHT22;4030;52.362;9.206;2023-06-19T00:11:44;24.70;49.80
7970;DHT22;4030;52.362;9.206;2023-06-19T00:14:10;24.70;49.80
7970;DHT22;4030;52.362;9.206;2023-06-19T00:16:35;24.70;49.90
7970;DHT22;4030;52.362;9.206;2023-06-19T00:19:01;24.70;49.90
7970;DHT22;4030;52.362;9.206;2023-06-19T00:21:29;24.60;49.90
7970;DHT22;4030;52.362;9.206;2023-06-19T00:23:55;24.60;50.00
7970;DHT22;4030;52.362;9.206;2023-06-19T00:26:21;24.60;50.10
7970;DHT22;4030;52.362;9.206;2023-06-19T00:28:51;24.60;50.10
7970;DHT22;4030;52.362;9.206;2023-06-19T00:31:17;24.60;50.30
7970;DHT22;4030;52.362;9.206;2023-06-19T00:33:44;24.60;50.30
7970;DHT22;4030;52.362;9.206;2023-06-19T00:36:14;24.50;50.20
7970;DHT22;4030;52.362;9.206;2023-06-19T00:38:41;24.50;50.30
7970;DHT22;4030;52.362;9.206;2023-06-19T00:41:07;24.50;50.40
7970;DHT22;4030;52.362;9.206;2023-06-19T00:43:34;24.40;50.30
7970;DHT22;4030;52.362;9.206;2023-06-19T00:46:00;24.40;50.40
7970;DHT22;4030;52.362;9.206;2023-06-19T00:48:28;24.40;50.40
7970;DHT22;4030;52.362;9.206;2023-06-19T00:50:58;24.40;50.50
7970;DHT22;4030;52.362;9.206;2023-06-19T00:53:25;24.40;50.50
7970;DHT22;4030;52.362;9.206;2023-06-19T00:55:51;24.40;50.50
7970;DHT22;4030;52.362;9.206;2023-06-19T00:58:20;24.40;50.60
7970;DHT22;4030;52.362;9.206;2023-06-19T01:00:46;24.40;50.70
7970;DHT22;4030;52.362;9.206;2023-06-19T01:03:12;24.40;50.70
7970;DHT22;4030;52.362;9.206;2023-06-19T01:05:38;24.30;50.60
7970;DHT22;4030;52.362;9.206;2023-06-19T01:08:25;24.30;50.70
7970;DHT22;4030;52.362;9.206;2023-06-19T01:11:09;24.30;50.70
7970;DHT22;4030;52.362;9.206;2023-06-19T01:13:39;24.30;51.50
7970;DHT22;4030;52.362;9.206;2023-06-19T01:16:09;24.30;50.70
7970;DHT22;4030;52.362;9.206;2023-06-19T01:18:35;24.30;50.80
7970;DHT22;4030;52.362;9.206;2023-06-19T01:21:12;24.20;50.70
7970;DHT22;4030;52.362;9.206;2023-06-19T01:23:41;24.20;50.80
7970;DHT22;4030;52.362;9.206;2023-06-19T01:26:08;24.20;50.80
7970;DHT22;4030;52.362;9.206;2023-06-19T01:28:35;24.20;50.80
7970;DHT22;4030;52.362;9.206;2023-06-19T01:33:52;24.20;50.80
7970;DHT22;4030;52.362;9.206;2023-06-19T01:36:19;24.10;50.80
7970;DHT22;4030;52.362;9.206;2023-06-19T01:38:47;24.10;50.80
7970;DHT22;4030;52.362;9.206;2023-06-19T01:41:14;24.10;50.80
7970;DHT22;4030;52.362;9.206;2023-06-19T01:43:41;24.10;50.90
7970;DHT22;4030;52.362;9.206;2023-06-19T01:46:07;24.10;51.00
7970;DHT22;4030;52.362;9.206;2023-06-19T01:48:35;24.10;51.00
7970;DHT22;4030;52.362;9.206;2023-06-19T01:51:01;24.00;51.00
7970;DHT22;4030;52.362;9.206;2023-06-19T01:53:30;24.00;51.00
7970;DHT22;4030;52.362;9.206;2023-06-19T01:55:57;24.00;51.00
7970;DHT22;4030;52.362;9.206;2023-06-19T01:58:23;24.00;51.10
7970;DHT22;4030;52.362;9.206;2023-06-19T02:00:49;24.00;51.10
7970;DHT22;4030;52.362;9.206;2023-06-19T02:03:15;24.00;51.10
7970;DHT22;4030;52.362;9.206;2023-06-19T02:05:40;23.90;51.10
7970;DHT22;4030;52.362;9.206;2023-06-19T02:08:06;23.90;51.20
7970;DHT22;4030;52.362;9.206;2023-06-19T02:10:32;23.90;51.20
7970;DHT22;4030;52.362;9.206;2023-06-19T02:12:58;23.90;51.30
7970;DHT22;4030;52.362;9.206;2023-06-19T02:15:23;23.90;51.40
7970;DHT22;4030;52.362;9.206;2023-06-19T02:17:49;23.90;51.40
7970;DHT22;4030;52.362;9.206;2023-06-19T02:20:20;23.90;51.50
7970;DHT22;4030;52.362;9.206;2023-06-19T02:22:46;23.90;51.50
7970;DHT22;4030;52.362;9.206;2023-06-19T02:25:12;23.80;51.40
7970;DHT22;4030;52.362;9.206;2023-06-19T02:27:38;23.80;51.50
7970;DHT22;4030;52.362;9.206;2023-06-19T02:30:05;23.80;51.50
7970;DHT22;4030;52.362;9.206;2023-06-19T02:32:31;23.80;51.60
7970;DHT22;4030;52.362;9.206;2023-06-19T02:34:57;23.80;51.60
7970;DHT22;4030;52.362;9.206;2023-06-19T02:37:23;23.70;51.60
7970;DHT22;4030;52.362;9.206;2023-06-19T02:39:49;23.70;51.60
7970;DHT22;4030;52.362;9.206;2023-06-19T02:42:14;23.70;51.70
7970;DHT22;4030;52.362;9.206;2023-06-19T02:44:40;23.70;51.70
7970;DHT22;4030;52.362;9.206;2023-06-19T02:47:07;23.70;51.70
7970;DHT22;4030;52.362;9.206;2023-06-19T02:49:33;23.70;51.80
7970;DHT22;4030;52.362;9.206;2023-06-19T02:51:59;23.70;51.80
7970;DHT22;4030;52.362;9.206;2023-06-19T02:54:24;23.70;51.80
7970;DHT22;4030;52.362;9.206;2023-06-19T02:56:50;23.70;51.90
7970;DHT22;4030;52.362;9.206;2023-06-19T02:59:15;23.60;51.80
7970;DHT22;4030;52.362;9.206;2023-06-19T03:01:41;23.70;51.90
7970;DHT22;4030;52.362;9.206;2023-06-19T03:04:07;23.60;51.90
7970;DHT22;4030;52.362;9.206;2023-06-19T03:06:33;23.60;51.90
7970;DHT22;4030;52.362;9.206;2023-06-19T03:09:04;23.60;51.90
7970;DHT22;4030;52.362;9.206;2023-06-19T03:11:30;23.60;51.90
7970;DHT22;4030;52.362;9.206;2023-06-19T03:13:56;23.60;51.90
7970;DHT22;4030;52.362;9.206;2023-06-19T03:16:21;23.60;51.90
7970;DHT22;4030;52.362;9.206;2023-06-19T03:18:47;23.60;52.00
7970;DHT22;4030;52.362;9.206;2023-06-19T03:21:14;23.60;52.00
7970;DHT22;4030;52.362;9.206;2023-06-19T03:23:40;23.60;52.10
7970;DHT22;4030;52.362;9.206;2023-06-19T03:26:09;23.60;52.10
7970;DHT22;4030;52.362;9.206;2023-06-19T03:28:36;23.60;52.20
7970;DHT22;4030;52.362;9.206;2023-06-19T03:31:02;23.60;52.20
7970;DHT22;4030;52.362;9.206;2023-06-19T03:33:28;23.60;52.20
7970;DHT22;4030;52.362;9.206;2023-06-19T03:35:53;23.60;52.20
7970;DHT22;4030;52.362;9.206;2023-06-19T03:38:19;23.50;52.20
7970;DHT22;4030;52.362;9.206;2023-06-19T03:40:45;23.50;52.20
7970;DHT22;4030;52.362;9.206;2023-06-19T03:43:11;23.50;52.20
7970;DHT22;4030;52.362;9.206;2023-06-19T03:45:37;23.60;52.20
7970;DHT22;4030;52.362;9.206;2023-06-19T03:48:03;23.50;52.20
7970;DHT22;4030;52.362;9.206;2023-06-19T03:50:29;23.50;52.20
7970;DHT22;4030;52.362;9.206;2023-06-19T03:52:55;23.50;52.30
7970;DHT22;4030;52.362;9.206;2023-06-19T03:55:20;23.50;52.30
7970;DHT22;4030;52.362;9.206;2023-06-19T03:57:46;23.50;52.30
7970;DHT22;4030;52.362;9.206;2023-06-19T04:00:13;23.50;52.40
7970;DHT22;4030;52.362;9.206;2023-06-19T04:02:39;23.50;52.40
7970;DHT22;4030;52.362;9.206;2023-06-19T04:05:06;23.50;52.50
7970;DHT22;4030;52.362;9.206;2023-06-19T04:07:32;23.50;52.50
7970;DHT22;4030;52.362;9.206;2023-06-19T04:09:58;23.50;52.60
7970;DHT22;4030;52.362;9.206;2023-06-19T04:12:24;23.50;52.60
7970;DHT22;4030;52.362;9.206;2023-06-19T04:14:50;23.40;52.60
7970;DHT22;4030;52.362;9.206;2023-06-19T04:17:16;23.50;52.70
7970;DHT22;4030;52.362;9.206;2023-06-19T04:19:42;23.40;52.60
7970;DHT22;4030;52.362;9.206;2023-06-19T04:22:07;23.40;52.70
7970;DHT22;4030;52.362;9.206;2023-06-19T04:24:33;23.50;52.80
7970;DHT22;4030;52.362;9.206;2023-06-19T04:26:59;23.40;52.90
7970;DHT22;4030;52.362;9.206;2023-06-19T04:29:24;23.40;52.90
7970;DHT22;4030;52.362;9.206;2023-06-19T04:31:50;23.50;53.00
7970;DHT22;4030;52.362;9.206;2023-06-19T04:34:16;23.50;53.00
7970;DHT22;4030;52.362;9.206;2023-06-19T04:36:49;23.50;53.00
7970;DHT22;4030;52.362;9.206;2023-06-19T04:39:15;23.50;53.10
7970;DHT22;4030;52.362;9.206;2023-06-19T04:41:44;23.50;53.10
7970;DHT22;4030;52.362;9.206;2023-06-19T04:44:10;23.50;53.20
7970;DHT22;4030;52.362;9.206;2023-06-19T04:46:38;23.50;53.20
7970;DHT22;4030;52.362;9.206;2023-06-19T04:49:05;23.50;53.20
7970;DHT22;4030;52.362;9.206;2023-06-19T04:51:31;23.50;53.30
7970;DHT22;4030;52.362;9.206;2023-06-19T04:53:58;23.50;53.30
7970;DHT22;4030;52.362;9.206;2023-06-19T04:56:24;23.50;53.20
7970;DHT22;4030;52.362;9.206;2023-06-19T04:58:50;23.60;53.30
7970;DHT22;4030;52.362;9.206;2023-06-19T05:01:17;23.60;53.30
7970;DHT22;4030;52.362;9.206;2023-06-19T05:03:45;23.60;53.20
7970;DHT22;4030;52.362;9.206;2023-06-19T05:06:13;23.70;53.20
7970;DHT22;4030;52.362;9.206;2023-06-19T05:08:39;23.70;53.20
7970;DHT22;4030;52.362;9.206;2023-06-19T05:11:05;23.70;53.00
7970;DHT22;4030;52.362;9.206;2023-06-19T05:13:30;23.80;53.10
7970;DHT22;4030;52.362;9.206;2023-06-19T05:15:56;23.80;53.10
7970;DHT22;4030;52.362;9.206;2023-06-19T05:18:22;23.90;53.10
7970;DHT22;4030;52.362;9.206;2023-06-19T05:20:48;23.90;53.20
7970;DHT22;4030;52.362;9.206;2023-06-19T05:23:13;24.00;53.20
7970;DHT22;4030;52.362;9.206;2023-06-19T05:25:39;24.00;53.20
7970;DHT22;4030;52.362;9.206;2023-06-19T05:28:05;24.00;53.30
7970;DHT22;4030;52.362;9.206;2023-06-19T05:30:30;24.00;53.30
7970;DHT22;4030;52.362;9.206;2023-06-19T05:32:56;24.00;53.30
7970;DHT22;4030;52.362;9.206;2023-06-19T05:35:22;24.00;53.40
7970;DHT22;4030;52.362;9.206;2023-06-19T05:37:48;24.00;53.40
7970;DHT22;4030;52.362;9.206;2023-06-19T05:40:14;24.10;53.50
7970;DHT22;4030;52.362;9.206;2023-06-19T05:42:40;24.10;53.50
7970;DHT22;4030;52.362;9.206;2023-06-19T05:45:06;24.10;53.60
7970;DHT22;4030;52.362;9.206;2023-06-19T05:47:32;24.10;53.70
7970;DHT22;4030;52.362;9.206;2023-06-19T05:49:58;24.10;53.70
7970;DHT22;4030;52.362;9.206;2023-06-19T05:52:24;24.10;53.90
7970;DHT22;4030;52.362;9.206;2023-06-19T05:54:50;24.10;53.90
7970;DHT22;4030;52.362;9.206;2023-06-19T05:57:16;24.10;54.00
7970;DHT22;4030;52.362;9.206;2023-06-19T05:59:46;24.20;54.20
7970;DHT22;4030;52.362;9.206;2023-06-19T06:02:12;24.20;54.20
7970;DHT22;4030;52.362;9.206;2023-06-19T06:04:38;24.20;54.20
7970;DHT22;4030;52.362;9.206;2023-06-19T06:07:04;24.30;54.30
7970;DHT22;4030;52.362;9.206;2023-06-19T06:09:30;24.30;54.30
7970;DHT22;4030;52.362;9.206;2023-06-19T06:11:56;24.40;54.30
7970;DHT22;4030;52.362;9.206;2023-06-19T06:14:21;24.40;54.30
7970;DHT22;4030;52.362;9.206;2023-06-19T06:16:48;24.40;54.20
7970;DHT22;4030;52.362;9.206;2023-06-19T06:19:14;24.50;54.20
7970;DHT22;4030;52.362;9.206;2023-06-19T06:21:39;24.50;54.10
7970;DHT22;4030;52.362;9.206;2023-06-19T06:24:06;24.60;54.00
7970;DHT22;4030;52.362;9.206;2023-06-19T06:26:32;24.70;53.90
7970;DHT22;4030;52.362;9.206;2023-06-19T06:28:58;24.80;53.80
7970;DHT22;4030;52.362;9.206;2023-06-19T06:31:24;24.80;53.70
7970;DHT22;4030;52.362;9.206;2023-06-19T06:33:50;24.90;53.80
7970;DHT22;4030;52.362;9.206;2023-06-19T06:36:15;24.90;53.70
7970;DHT22;4030;52.362;9.206;2023-06-19T06:38:41;25.00;53.70
7970;DHT22;4030;52.362;9.206;2023-06-19T06:41:07;25.00;53.70
7970;DHT22;4030;52.362;9.206;2023-06-19T06:43:33;25.00;53.70
7970;DHT22;4030;52.362;9.206;2023-06-19T06:45:59;25.10;53.60
7970;DHT22;4030;52.362;9.206;2023-06-19T06:48:25;25.10;53.60
7970;DHT22;4030;52.362;9.206;2023-06-19T06:50:51;25.20;53.70
7970;DHT22;4030;52.362;9.206;2023-06-19T06:53:24;25.20;53.70
7970;DHT22;4030;52.362;9.206;2023-06-19T06:55:51;25.30;53.70
7970;DHT22;4030;52.362;9.206;2023-06-19T06:58:17;25.30;53.70
7970;DHT22;4030;52.362;9.206;2023-06-19T07:00:44;25.40;53.80
7970;DHT22;4030;52.362;9.206;2023-06-19T07:03:10;25.40;53.60
7970;DHT22;4030;52.362;9.206;2023-06-19T07:05:35;25.50;53.70
7970;DHT22;4030;52.362;9.206;2023-06-19T07:08:01;26.10;54.10
7970;DHT22;4030;52.362;9.206;2023-06-19T07:10:27;25.50;53.70
7970;DHT22;4030;52.362;9.206;2023-06-19T07:12:53;25.60;53.80
7970;DHT22;4030;52.362;9.206;2023-06-19T07:15:18;25.60;53.90
7970;DHT22;4030;52.362;9.206;2023-06-19T07:17:47;25.60;53.90
7970;DHT22;4030;52.362;9.206;2023-06-19T07:20:14;25.60;54.00
7970;DHT22;4030;52.362;9.206;2023-06-19T07:22:40;25.60;54.00
7970;DHT22;4030;52.362;9.206;2023-06-19T07:25:07;25.70;54.10
7970;DHT22;4030;52.362;9.206;2023-06-19T07:27:33;25.80;54.10
7970;DHT22;4030;52.362;9.206;2023-06-19T07:29:59;25.80;53.90
7970;DHT22;4030;52.362;9.206;2023-06-19T07:32:25;25.90;53.80
7970;DHT22;4030;52.362;9.206;2023-06-19T07:34:50;26.00;53.70
7970;DHT22;4030;52.362;9.206;2023-06-19T07:37:16;26.10;54.00
7970;DHT22;4030;52.362;9.206;2023-06-19T07:39:44;26.20;53.90
7970;DHT22;4030;52.362;9.206;2023-06-19T07:42:10;26.20;53.90
7970;DHT22;4030;52.362;9.206;2023-06-19T07:44:36;26.30;53.90
7970;DHT22;4030;52.362;9.206;2023-06-19T07:47:02;26.40;53.90
7970;DHT22;4030;52.362;9.206;2023-06-19T07:49:27;26.50;53.90
7970;DHT22;4030;52.362;9.206;2023-06-19T07:51:53;26.60;53.80
7970;DHT22;4030;52.362;9.206;2023-06-19T07:54:19;26.70;53.80
7970;DHT22;4030;52.362;9.206;2023-06-19T07:56:44;26.90;53.90
7970;DHT22;4030;52.362;9.206;2023-06-19T07:59:10;27.00;53.90
7970;DHT22;4030;52.362;9.206;2023-06-19T08:01:36;27.10;53.80
7970;DHT22;4030;52.362;9.206;2023-06-19T08:04:02;27.20;53.80
7970;DHT22;4030;52.362;9.206;2023-06-19T08:06:27;27.30;53.70
7970;DHT22;4030;52.362;9.206;2023-06-19T08:08:53;27.40;53.70
7970;DHT22;4030;52.362;9.206;2023-06-19T08:11:19;27.50;53.60
7970;DHT22;4030;52.362;9.206;2023-06-19T08:13:44;27.60;53.60
7970;DHT22;4030;52.362;9.206;2023-06-19T08:16:10;27.70;54.20
7970;DHT22;4030;52.362;9.206;2023-06-19T08:18:36;27.80;53.50
7970;DHT22;4030;52.362;9.206;2023-06-19T08:21:02;27.90;53.40
7970;DHT22;4030;52.362;9.206;2023-06-19T08:23:27;28.10;53.50
7970;DHT22;4030;52.362;9.206;2023-06-19T08:25:53;28.20;53.30
7970;DHT22;4030;52.362;9.206;2023-06-19T08:28:19;28.30;53.30
7970;DHT22;4030;52.362;9.206;2023-06-19T08:30:45;28.40;53.20
7970;DHT22;4030;52.362;9.206;2023-06-19T08:33:12;28.50;53.00
7970;DHT22;4030;52.362;9.206;2023-06-19T08:35:38;28.70;52.90
7970;DHT22;4030;52.362;9.206;2023-06-19T08:38:04;28.70;52.80
7970;DHT22;4030;52.362;9.206;2023-06-19T08:40:29;28.70;52.70
7970;DHT22;4030;52.362;9.206;2023-06-19T08:42:56;28.80;52.80
7970;DHT22;4030;52.362;9.206;2023-06-19T08:45:22;28.80;52.80
7970;DHT22;4030;52.362;9.206;2023-06-19T08:47:48;28.80;53.00
7970;DHT22;4030;52.362;9.206;2023-06-19T08:50:15;28.90;52.90
7970;DHT22;4030;52.362;9.206;2023-06-19T08:52:41;28.90;52.80
7970;DHT22;4030;52.362;9.206;2023-06-19T08:55:07;29.00;52.60
7970;DHT22;4030;52.362;9.206;2023-06-19T08:57:34;29.00;52.50
7970;DHT22;4030;52.362;9.206;2023-06-19T09:00:00;29.00;53.30
7970;DHT22;4030;52.362;9.206;2023-06-19T09:02:36;28.90;52.50
7970;DHT22;4030;52.362;9.206;2023-06-19T09:05:11;28.90;52.50
7970;DHT22;4030;52.362;9.206;2023-06-19T09:07:38;28.90;52.40
7970;DHT22;4030;52.362;9.206;2023-06-19T09:10:15;29.00;52.40
7970;DHT22;4030;52.362;9.206;2023-06-19T09:12:43;29.10;52.30
7970;DHT22;4030;52.362;9.206;2023-06-19T09:15:14;29.10;52.00
7970;DHT22;4030;52.362;9.206;2023-06-19T09:17:40;29.20;51.90
7970;DHT22;4030;52.362;9.206;2023-06-19T09:20:06;29.30;51.80
7970;DHT22;4030;52.362;9.206;2023-06-19T09:22:32;29.20;51.80
7970;DHT22;4030;52.362;9.206;2023-06-19T09:25:02;29.20;51.90
7970;DHT22;4030;52.362;9.206;2023-06-19T09:27:32;29.20;52.00
7970;DHT22;4030;52.362;9.206;2023-06-19T09:29:58;29.20;52.20
7970;DHT22;4030;52.362;9.206;2023-06-19T09:32:28;29.20;52.40
7970;DHT22;4030;52.362;9.206;2023-06-19T09:34:55;29.30;52.30
7970;DHT22;4030;52.362;9.206;2023-06-19T09:37:25;29.20;52.20
7970;DHT22;4030;52.362;9.206;2023-06-19T09:39:53;29.20;52.30
7970;DHT22;4030;52.362;9.206;2023-06-19T09:42:33;29.10;52.20
7970;DHT22;4030;52.362;9.206;2023-06-19T09:45:04;29.20;52.40
7970;DHT22;4030;52.362;9.206;2023-06-19T09:47:38;29.20;52.20
7970;DHT22;4030;52.362;9.206;2023-06-19T09:50:07;29.20;52.00
7970;DHT22;4030;52.362;9.206;2023-06-19T09:52:33;29.30;52.10
7970;DHT22;4030;52.362;9.206;2023-06-19T09:55:04;29.30;52.10
7970;DHT22;4030;52.362;9.206;2023-06-19T09:57:31;29.30;52.10
7970;DHT22;4030;52.362;9.206;2023-06-19T09:59:59;29.30;51.90
7970;DHT22;4030;52.362;9.206;2023-06-19T10:02:31;29.20;51.80
7970;DHT22;4030;52.362;9.206;2023-06-19T10:04:56;29.10;51.70
7970;DHT22;4030;52.362;9.206;2023-06-19T10:07:25;29.10;51.80
7970;DHT22;4030;52.362;9.206;2023-06-19T10:10:00;29.10;51.80
7970;DHT22;4030;52.362;9.206;2023-06-19T10:12:38;29.10;51.80
7970;DHT22;4030;52.362;9.206;2023-06-19T10:18:01;29.10;51.80
7970;DHT22;4030;52.362;9.206;2023-06-19T10:20:33;29.10;51.90
7970;DHT22;4030;52.362;9.206;2023-06-19T10:23:18;29.00;51.80
7970;DHT22;4030;52.362;9.206;2023-06-19T10:25:56;29.00;52.10
7970;DHT22;4030;52.362;9.206;2023-06-19T10:28:28;29.00;52.10
7970;DHT22;4030;52.362;9.206;2023-06-19T10:31:02;29.10;52.00
7970;DHT22;4030;52.362;9.206;2023-06-19T10:33:36;29.30;51.80
7970;DHT22;4030;52.362;9.206;2023-06-19T10:36:16;29.50;51.50
7970;DHT22;4030;52.362;9.206;2023-06-19T10:38:45;29.60;51.10
7970;DHT22;4030;52.362;9.206;2023-06-19T10:41:20;29.70;50.90
7970;DHT22;4030;52.362;9.206;2023-06-19T10:44:01;29.70;50.80
7970;DHT22;4030;52.362;9.206;2023-06-19T10:46:33;29.70;50.90
7970;DHT22;4030;52.362;9.206;2023-06-19T10:49:02;29.70;50.90
7970;DHT22;4030;52.362;9.206;2023-06-19T10:51:41;29.80;50.70
7970;DHT22;4030;52.362;9.206;2023-06-19T10:54:09;29.80;50.70
7970;DHT22;4030;52.362;9.206;2023-06-19T10:56:36;29.80;50.50
7970;DHT22;4030;52.362;9.206;2023-06-19T10:59:06;29.80;50.10
7970;DHT22;4030;52.362;9.206;2023-06-19T11:01:38;29.90;50.00
7970;DHT22;4030;52.362;9.206;2023-06-19T11:04:13;30.00;50.00
7970;DHT22;4030;52.362;9.206;2023-06-19T11:06:40;30.00;50.40
7970;DHT22;4030;52.362;9.206;2023-06-19T11:09:08;29.90;48.90
7970;DHT22;4030;52.362;9.206;2023-06-19T11:11:39;29.80;49.20
7970;DHT22;4030;52.362;9.206;2023-06-19T11:14:09;29.60;49.20
7970;DHT22;4030;52.362;9.206;2023-06-19T11:16:39;29.50;49.30
7970;DHT22;4030;52.362;9.206;2023-06-19T11:19:17;29.40;49.40
7970;DHT22;4030;52.362;9.206;2023-06-19T11:21:49;29.30;49.70
7970;DHT22;4030;52.362;9.206;2023-06-19T11:24:15;29.20;50.10
7970;DHT22;4030;52.362;9.206;2023-06-19T11:26:42;29.10;50.40
7970;DHT22;4030;52.362;9.206;2023-06-19T11:29:21;28.90;50.70
7970;DHT22;4030;52.362;9.206;2023-06-19T11:31:49;28.90;51.10
7970;DHT22;4030;52.362;9.206;2023-06-19T11:34:16;28.80;51.40
7970;DHT22;4030;52.362;9.206;2023-06-19T11:36:43;28.80;51.80
7970;DHT22;4030;52.362;9.206;2023-06-19T11:39:11;28.80;51.90
7970;DHT22;4030;52.362;9.206;2023-06-19T11:41:39;28.90;52.00
7970;DHT22;4030;52.362;9.206;2023-06-19T11:44:06;28.90;51.90
7970;DHT22;4030;52.362;9.206;2023-06-19T11:46:34;29.00;51.80
7970;DHT22;4030;52.362;9.206;2023-06-19T11:49:14;29.10;51.50
7970;DHT22;4030;52.362;9.206;2023-06-19T11:51:42;29.20;51.20
7970;DHT22;4030;52.362;9.206;2023-06-19T11:54:10;29.30;51.20
7970;DHT22;4030;52.362;9.206;2023-06-19T11:56:39;29.40;51.40
7970;DHT22;4030;52.362;9.206;2023-06-19T11:59:05;29.40;51.40
7970;DHT22;4030;52.362;9.206;2023-06-19T12:01:32;29.30;51.50
7970;DHT22;4030;52.362;9.206;2023-06-19T12:03:59;29.30;51.60
7970;DHT22;4030;52.362;9.206;2023-06-19T12:06:26;29.20;51.40
7970;DHT22;4030;52.362;9.206;2023-06-19T12:08:51;29.10;51.10
7970;DHT22;4030;52.362;9.206;2023-06-19T12:11:17;29.00;50.60
7970;DHT22;4030;52.362;9.206;2023-06-19T12:13:43;28.90;50.60
7970;DHT22;4030;52.362;9.206;2023-06-19T12:16:13;28.90;50.70
7970;DHT22;4030;52.362;9.206;2023-06-19T12:18:38;28.90;50.80
7970;DHT22;4030;52.362;9.206;2023-06-19T12:21:04;28.90;50.50
7970;DHT22;4030;52.362;9.206;2023-06-19T12:23:30;28.90;50.10
7970;DHT22;4030;52.362;9.206;2023-06-19T12:25:56;28.80;50.20
7970;DHT22;4030;52.362;9.206;2023-06-19T12:28:22;28.80;50.20
7970;DHT22;4030;52.362;9.206;2023-06-19T12:30:48;28.80;50.30
7970;DHT22;4030;52.362;9.206;2023-06-19T12:33:18;28.80;50.60
7970;DHT22;4030;52.362;9.206;2023-06-19T12:35:46;28.80;50.90
7970;DHT22;4030;52.362;9.206;2023-06-19T12:38:12;28.80;51.00
7970;DHT22;4030;52.362;9.206;2023-06-19T12:40:38;28.80;51.20
7970;DHT22;4030;52.362;9.206;2023-06-19T12:43:04;28.90;51.30
7970;DHT22;4030;52.362;9.206;2023-06-19T12:45:30;28.90;51.10
7970;DHT22;4030;52.362;9.206;2023-06-19T12:47:55;28.90;50.80
7970;DHT22;4030;52.362;9.206;2023-06-19T12:50:21;28.90;50.80
7970;DHT22;4030;52.362;9.206;2023-06-19T12:52:47;28.90;50.80
7970;DHT22;4030;52.362;9.206;2023-06-19T12:55:14;29.00;50.80
7970;DHT22;4030;52.362;9.206;2023-06-19T12:57:40;29.00;50.80
7970;DHT22;4030;52.362;9.206;2023-06-19T13:00:12;29.00;50.90
7970;DHT22;4030;52.362;9.206;2023-06-19T13:02:39;28.90;51.00
7970;DHT22;4030;52.362;9.206;2023-06-19T13:05:06;28.90;51.20
7970;DHT22;4030;52.362;9.206;2023-06-19T13:07:32;28.90;51.20
7970;DHT22;4030;52.362;9.206;2023-06-19T13:09:58;28.90;51.00
7970;DHT22;4030;52.362;9.206;2023-06-19T13:12:24;29.10;50.90
7970;DHT22;4030;52.362;9.206;2023-06-19T13:14:51;29.10;51.00
7970;DHT22;4030;52.362;9.206;2023-06-19T13:17:17;29.20;50.90
7970;DHT22;4030;52.362;9.206;2023-06-19T13:19:44;29.40;50.80
7970;DHT22;4030;52.362;9.206;2023-06-19T13:22:10;29.40;50.50
7970;DHT22;4030;52.362;9.206;2023-06-19T13:24:35;29.40;50.50
7970;DHT22;4030;52.362;9.206;2023-06-19T13:27:01;29.30;50.80
7970;DHT22;4030;52.362;9.206;2023-06-19T13:29:28;29.30;50.90
7970;DHT22;4030;52.362;9.206;2023-06-19T13:31:53;29.30;51.20
7970;DHT22;4030;52.362;9.206;2023-06-19T13:34:19;29.40;51.40
7970;DHT22;4030;52.362;9.206;2023-06-19T13:36:47;29.50;51.30
7970;DHT22;4030;52.362;9.206;2023-06-19T13:39:13;29.80;51.00
7970;DHT22;4030;52.362;9.206;2023-06-19T13:41:38;30.00;50.70
7970;DHT22;4030;52.362;9.206;2023-06-19T13:44:04;30.20;50.40
7970;DHT22;4030;52.362;9.206;2023-06-19T13:46:30;30.40;49.60
7970;DHT22;4030;52.362;9.206;2023-06-19T13:48:57;30.70;49.20
7970;DHT22;4030;52.362;9.206;2023-06-19T13:51:23;30.90;48.70
7970;DHT22;4030;52.362;9.206;2023-06-19T13:53:50;31.10;49.10
7970;DHT22;4030;52.362;9.206;2023-06-19T13:56:17;31.20;48.30
7970;DHT22;4030;52.362;9.206;2023-06-19T13:58:43;31.20;48.80
7970;DHT22;4030;52.362;9.206;2023-06-19T14:01:09;31.10;47.70
7970;DHT22;4030;52.362;9.206;2023-06-19T14:03:37;31.00;47.50
7970;DHT22;4030;52.362;9.206;2023-06-19T14:06:06;30.90;47.80
7970;DHT22;4030;52.362;9.206;2023-06-19T14:08:32;31.00;47.60
7970;DHT22;4030;52.362;9.206;2023-06-19T14:10:58;31.00;47.20
7970;DHT22;4030;52.362;9.206;2023-06-19T14:13:24;31.10;47.00
7970;DHT22;4030;52.362;9.206;2023-06-19T14:15:50;31.20;46.60
7970;DHT22;4030;52.362;9.206;2023-06-19T14:18:16;31.20;46.60
7970;DHT22;4030;52.362;9.206;2023-06-19T14:20:42;31.30;46.60
7970;DHT22;4030;52.362;9.206;2023-06-19T14:23:08;31.40;46.80
7970;DHT22;4030;52.362;9.206;2023-06-19T14:25:34;31.40;46.70
7970;DHT22;4030;52.362;9.206;2023-06-19T14:27:59;31.50;46.80
7970;DHT22;4030;52.362;9.206;2023-06-19T14:30:25;31.50;47.00
7970;DHT22;4030;52.362;9.206;2023-06-19T14:32:51;31.40;46.50
7970;DHT22;4030;52.362;9.206;2023-06-19T14:35:17;31.40;46.30
7970;DHT22;4030;52.362;9.206;2023-06-19T14:37:42;31.50;46.20
7970;DHT22;4030;52.362;9.206;2023-06-19T14:40:09;31.70;46.10
7970;DHT22;4030;52.362;9.206;2023-06-19T14:42:35;31.80;45.90
7970;DHT22;4030;52.362;9.206;2023-06-19T14:45:00;31.70;45.70
7970;DHT22;4030;52.362;9.206;2023-06-19T14:47:26;31.70;45.60
7970;DHT22;4030;52.362;9.206;2023-06-19T14:49:52;31.70;45.70
7970;DHT22;4030;52.362;9.206;2023-06-19T14:52:19;31.60;45.80
7970;DHT22;4030;52.362;9.206;2023-06-19T14:54:45;31.50;45.70
7970;DHT22;4030;52.362;9.206;2023-06-19T14:57:11;31.30;45.70
7970;DHT22;4030;52.362;9.206;2023-06-19T14:59:37;31.20;46.10
7970;DHT22;4030;52.362;9.206;2023-06-19T15:02:02;31.00;46.50
7970;DHT22;4030;52.362;9.206;2023-06-19T15:04:28;30.90;46.60
7970;DHT22;4030;52.362;9.206;2023-06-19T15:06:54;30.80;46.90
7970;DHT22;4030;52.362;9.206;2023-06-19T15:09:19;30.80;47.20
7970;DHT22;4030;52.362;9.206;2023-06-19T15:11:45;30.80;47.50
7970;DHT22;4030;52.362;9.206;2023-06-19T15:14:11;30.80;47.40
7970;DHT22;4030;52.362;9.206;2023-06-19T15:16:36;30.90;47.30
7970;DHT22;4030;52.362;9.206;2023-06-19T15:19:02;31.00;47.30
7970;DHT22;4030;52.362;9.206;2023-06-19T15:21:28;31.10;47.20
7970;DHT22;4030;52.362;9.206;2023-06-19T15:23:54;31.20;47.20
7970;DHT22;4030;52.362;9.206;2023-06-19T15:26:23;31.30;47.20
7970;DHT22;4030;52.362;9.206;2023-06-19T15:28:49;31.40;47.10
7970;DHT22;4030;52.362;9.206;2023-06-19T15:31:20;31.40;47.00
7970;DHT22;4030;52.362;9.206;2023-06-19T15:33:49;31.50;46.90
7970;DHT22;4030;52.362;9.206;2023-06-19T15:36:16;31.50;46.90
7970;DHT22;4030;52.362;9.206;2023-06-19T15:38:42;31.50;46.60
7970;DHT22;4030;52.362;9.206;2023-06-19T15:41:08;31.50;46.70
7970;DHT22;4030;52.362;9.206;2023-06-19T15:43:34;31.50;46.70
7970;DHT22;4030;52.362;9.206;2023-06-19T15:45:59;31.50;46.60
7970;DHT22;4030;52.362;9.206;2023-06-19T15:48:26;31.50;46.70
7970;DHT22;4030;52.362;9.206;2023-06-19T15:50:52;31.50;46.80
7970;DHT22;4030;52.362;9.206;2023-06-19T15:53:18;31.50;46.90
7970;DHT22;4030;52.362;9.206;2023-06-19T15:55:44;31.50;46.90
7970;DHT22;4030;52.362;9.206;2023-06-19T15:58:10;31.40;47.00
7970;DHT22;4030;52.362;9.206;2023-06-19T16:00:37;31.40;47.00
7970;DHT22;4030;52.362;9.206;2023-06-19T16:03:03;31.40;47.10
7970;DHT22;4030;52.362;9.206;2023-06-19T16:05:28;31.30;47.20
7970;DHT22;4030;52.362;9.206;2023-06-19T16:07:54;31.30;47.30